KAVK

Alva Regional Airport

Alva, Oklahoma, USA
METAR KAVK 131035Z AUTO 34015KT 7SM SCT013 OVC019 05/05 A2979 RMK AO2
Observed Flight Rules
Dec-13 @ 10:35 UTC (16 minutes ago) Marginal Visual Flight Rules
Wind Visibility Clouds
340° at 15 knots 7 miles
  • Scattered at 1,300' AGL
  • Overcast at 1,900' AGL
Temperatures Readings
Current 5°C / 41°F
Dewpoint 5°C / 41°F
Humidity 100%
Altimeter 29.79" Hg
Pressure 1009 hPa
Elevation 449
METAR KAVK 131035Z AUTO 34015KT 7SM SCT013 OVC019 05/05 A2979 RMK AO2
Observed Flight Rules
Dec-13 @ 10:35 UTC
(16 minutes ago)
MVFR
Wind Visibility
340° at 15 knots 7 miles
Clouds
  • Scattered at 1,300' AGL
  • Overcast at 1,900' AGL
Temperature Dewpoint
5°C / 41°F 5°C / 41°F
Humidity Altimeter Pressure
100% 29.79" Hg 1009 hPa